createdAt,value
2019-04-03T00:04:04.669Z,13.13
2019-04-03T00:09:11.159Z,12.70
2019-04-03T00:14:17.741Z,13.47
2019-04-03T00:19:23.923Z,13.30
2019-04-03T00:24:29.987Z,13.33
2019-04-03T00:29:36.163Z,14.07
2019-04-03T00:34:43.286Z,13.17
2019-04-03T00:39:49.354Z,13.90
2019-04-03T00:44:55.526Z,13.97
2019-04-03T00:50:01.710Z,14.43
2019-04-03T00:55:07.867Z,14.53
2019-04-03T01:00:16.238Z,15.10
2019-04-03T01:05:22.370Z,14.57
2019-04-03T01:10:29.780Z,13.93
2019-04-03T01:15:36.321Z,13.80
2019-04-03T01:20:42.447Z,15.07
2019-04-03T01:25:48.630Z,15.40
2019-04-03T01:30:54.717Z,15.60
2019-04-03T01:36:00.778Z,14.03
2019-04-03T01:41:07.183Z,15.17
2019-04-03T01:46:13.186Z,14.57
2019-04-03T01:51:19.281Z,14.93
2019-04-03T01:56:25.354Z,15.43
2019-04-03T02:01:31.521Z,15.23
2019-04-03T02:06:37.605Z,15.17
2019-04-03T02:11:43.713Z,14.97
2019-04-03T02:16:49.882Z,15.33
2019-04-03T02:21:57.988Z,15.93
2019-04-03T02:27:03.662Z,14.43
2019-04-03T02:32:10.840Z,15.17
2019-04-03T02:37:17.727Z,15.67
2019-04-03T02:42:24.010Z,15.13
2019-04-03T02:47:32.538Z,15.20
2019-04-03T02:52:37.902Z,15.63
2019-04-03T02:57:44.255Z,14.23
2019-04-03T03:02:50.367Z,15.87
2019-04-03T03:07:57.832Z,14.67
2019-04-03T03:13:04.040Z,14.30
2019-04-03T03:18:10.538Z,14.80
2019-04-03T03:23:16.713Z,14.70
2019-04-03T03:28:23.723Z,15.07
2019-04-03T03:33:36.337Z,14.20
2019-04-03T03:38:39.485Z,14.47
2019-04-03T03:43:46.475Z,15.73
2019-04-03T03:48:53.140Z,14.53
2019-04-03T03:53:59.816Z,14.67
2019-04-03T03:59:07.438Z,14.63
2019-04-03T04:04:15.682Z,14.63
2019-04-03T04:09:22.448Z,14.47
2019-04-03T04:14:28.557Z,14.37
2019-04-03T04:19:35.812Z,14.77
2019-04-03T04:24:41.941Z,14.60
2019-04-03T04:29:48.174Z,15.43
2019-04-03T04:34:54.400Z,15.00
2019-04-03T04:40:00.526Z,14.37
2019-04-03T04:45:07.240Z,14.27
2019-04-03T04:50:14.679Z,15.43
2019-04-03T04:55:20.802Z,14.97
2019-04-03T05:00:29.407Z,15.77
2019-04-03T05:05:34.805Z,15.20
2019-04-03T05:10:40.952Z,15.80
2019-04-03T05:15:47.239Z,14.80
2019-04-03T05:20:54.463Z,16.37
2019-04-03T05:26:01.898Z,15.67
2019-04-03T05:31:08.899Z,14.03
2019-04-03T05:36:17.091Z,16.07
2019-04-03T05:41:23.023Z,17.17
2019-04-03T05:46:29.198Z,15.23
2019-04-03T05:51:36.226Z,16.20
2019-04-03T05:56:42.980Z,16.43
2019-04-03T06:01:49.636Z,16.70
2019-04-03T06:06:55.799Z,16.77
2019-04-03T06:12:01.873Z,15.67
2019-04-03T06:17:08.055Z,16.27
2019-04-03T06:22:16.342Z,15.60
2019-04-03T06:27:22.142Z,15.50
2019-04-03T06:32:29.176Z,15.97
2019-04-03T06:37:35.924Z,17.03
2019-04-03T06:42:44.130Z,15.87
2019-04-03T06:47:50.132Z,15.80
2019-04-03T06:52:56.397Z,15.60
2019-04-03T06:58:02.574Z,15.40
2019-04-03T07:03:08.608Z,13.80
2019-04-03T07:08:14.687Z,13.30
2019-04-03T07:13:21.105Z,15.13
2019-04-03T07:18:27.610Z,16.27
2019-04-03T07:23:33.711Z,14.03
2019-04-03T07:28:41.592Z,13.40
2019-04-03T07:33:47.707Z,13.43
2019-04-03T07:38:53.799Z,12.87
2019-04-03T07:43:59.633Z,13.97
2019-04-03T07:49:06.784Z,13.30
2019-04-03T07:54:13.820Z,13.47
2019-04-03T07:59:20.035Z,13.33
2019-04-03T08:04:26.098Z,13.00
2019-04-03T08:09:32.249Z,12.53
2019-04-03T08:14:40.471Z,12.67
2019-04-03T08:19:46.255Z,12.97
2019-04-03T08:24:53.717Z,13.13
2019-04-03T08:30:00.112Z,13.40
2019-04-03T08:35:19.825Z,12.60
2019-04-03T08:40:15.354Z,12.43
2019-04-03T08:45:22.162Z,12.83
2019-04-03T08:50:29.132Z,13.57
2019-04-03T08:55:35.417Z,12.20
2019-04-03T09:00:41.810Z,13.33
2019-04-03T09:05:50.563Z,12.97
2019-04-03T09:10:55.977Z,13.43
2019-04-03T09:16:02.199Z,13.13
2019-04-03T09:21:08.487Z,13.23
2019-04-03T09:26:14.564Z,12.60
2019-04-03T09:31:20.836Z,12.57
2019-04-03T09:36:26.942Z,13.50
2019-04-03T09:41:32.969Z,13.50
2019-04-03T09:46:39.048Z,13.40
2019-04-03T09:51:45.317Z,13.27
2019-04-03T09:56:57.852Z,13.60
2019-04-03T10:01:59.244Z,13.47
2019-04-03T10:07:05.390Z,12.88
2019-04-03T10:12:11.634Z,13.22
2019-04-03T10:17:17.750Z,13.53
2019-04-03T10:22:24.179Z,13.55
2019-04-03T10:27:30.918Z,13.68
2019-04-03T10:32:37.036Z,13.50
2019-04-03T10:37:45.635Z,13.78
2019-04-03T10:42:50.967Z,13.25
2019-04-03T10:47:57.269Z,13.93
2019-04-03T10:53:03.367Z,14.53
2019-04-03T10:58:09.458Z,13.70
2019-04-03T11:03:15.690Z,13.55
2019-04-03T11:08:21.906Z,14.07
2019-04-03T11:13:27.961Z,13.75
2019-04-03T11:18:34.005Z,13.50
2019-04-03T11:23:44.308Z,14.05
2019-04-03T11:28:48.362Z,14.00
2019-04-03T11:33:55.030Z,13.50
2019-04-03T11:39:11.066Z,13.32
2019-04-03T11:44:09.932Z,13.75
2019-04-03T11:49:15.998Z,13.63
2019-04-03T11:54:22.067Z,13.68
2019-04-03T11:59:28.408Z,13.98
2019-04-03T12:04:34.844Z,15.20
2019-04-03T12:09:40.983Z,14.63
2019-04-03T12:14:49.142Z,14.33
2019-04-03T12:19:54.895Z,14.38
2019-04-03T12:25:00.961Z,14.63
2019-04-03T12:30:08.295Z,14.33
2019-04-03T12:35:15.510Z,13.72
2019-04-03T12:40:21.966Z,14.03
2019-04-03T12:45:28.362Z,15.18
2019-04-03T12:50:35.734Z,13.48
2019-04-03T12:55:42.923Z,13.88
2019-04-03T13:00:49.203Z,13.05
2019-04-03T13:05:55.311Z,13.70
2019-04-03T13:11:01.684Z,13.18
2019-04-03T13:16:10.257Z,14.15
2019-04-03T13:21:15.592Z,14.03
2019-04-03T13:26:24.098Z,14.98
2019-04-03T13:31:29.519Z,14.28
2019-04-03T13:36:35.745Z,13.60
2019-04-03T13:41:43.132Z,13.83
2019-04-03T13:46:52.263Z,13.68
2019-04-03T13:52:01.548Z,12.50
2019-04-03T13:57:05.379Z,12.27
2019-04-03T14:02:13.639Z,12.87
2019-04-03T14:07:19.367Z,13.27
2019-04-03T14:12:25.879Z,11.90
2019-04-03T14:17:32.270Z,12.40
2019-04-03T14:22:38.605Z,12.10
2019-04-03T14:27:44.802Z,11.10
2019-04-03T14:32:53.397Z,10.70
2019-04-03T14:38:00.216Z,11.30
2019-04-03T14:43:06.638Z,12.50
2019-04-03T14:48:12.827Z,12.07
2019-04-03T14:53:20.222Z,12.23
2019-04-03T14:58:27.582Z,12.03
2019-04-03T15:03:34.882Z,12.20
2019-04-03T15:08:41.055Z,12.07
2019-04-03T15:13:47.410Z,12.30
2019-04-03T15:18:54.874Z,13.33
2019-04-03T15:24:01.017Z,14.07
2019-04-03T15:29:07.290Z,13.83
2019-04-03T15:34:13.903Z,13.33
2019-04-03T15:39:20.422Z,13.07
2019-04-03T15:44:28.371Z,13.80
2019-04-03T15:49:35.501Z,13.97
2019-04-03T15:54:41.894Z,12.87
2019-04-03T15:59:51.690Z,13.67
2019-04-03T16:04:58.474Z,12.23
2019-04-03T16:10:04.910Z,12.60
2019-04-03T16:15:11.588Z,13.57
2019-04-03T16:20:18.317Z,14.00
2019-04-03T16:25:24.466Z,14.17
2019-04-03T16:30:30.717Z,14.57
2019-04-03T16:35:37.415Z,12.47
2019-04-03T16:40:43.929Z,12.43
2019-04-03T16:45:51.342Z,11.63
2019-04-03T16:50:59.691Z,11.73
2019-04-03T16:56:07.003Z,12.30
2019-04-03T17:01:14.737Z,17.57
2019-04-03T17:06:21.229Z,12.23
2019-04-03T17:11:27.563Z,12.37
2019-04-03T17:16:33.695Z,22.83
2019-04-03T17:21:41.171Z,13.47
2019-04-03T17:26:51.664Z,14.07
2019-04-03T17:31:57.605Z,12.03
2019-04-03T17:37:03.242Z,12.23
2019-04-03T17:42:09.439Z,11.77
2019-04-03T17:47:15.495Z,11.73
2019-04-03T17:52:21.799Z,12.23
2019-04-03T17:57:27.981Z,13.27
2019-04-03T18:02:34.103Z,12.90
2019-04-03T18:07:40.167Z,12.93
2019-04-03T18:12:46.213Z,13.13
2019-04-03T18:17:52.295Z,13.30
2019-04-03T18:22:58.419Z,12.10
2019-04-03T18:28:05.381Z,12.13
2019-04-03T18:33:11.691Z,12.80
2019-04-03T18:38:17.887Z,13.37
2019-04-03T18:43:24.275Z,12.73
2019-04-03T18:48:30.583Z,12.30
2019-04-03T18:53:36.686Z,14.27
2019-04-03T18:58:44.099Z,13.67
2019-04-03T19:03:51.487Z,14.73
2019-04-03T19:09:09.286Z,15.33
2019-04-03T19:14:05.550Z,15.40
2019-04-03T19:19:11.747Z,15.63
2019-04-03T19:24:17.811Z,16.17
2019-04-03T19:29:23.922Z,16.43
2019-04-03T19:34:30.092Z,17.47
2019-04-03T19:39:37.794Z,17.33
2019-04-03T19:44:44.037Z,16.60
2019-04-03T19:49:50.184Z,16.53
2019-04-03T19:54:56.266Z,16.93
2019-04-03T20:00:03.174Z,15.63
2019-04-03T20:05:10.427Z,15.57
2019-04-03T20:10:16.697Z,15.80
2019-04-03T20:15:23.396Z,16.43
2019-04-03T20:21:10.138Z,15.57
2019-04-03T20:26:16.469Z,16.73
2019-04-03T20:31:23.145Z,16.90
2019-04-03T20:36:29.210Z,14.90
2019-04-03T20:41:35.360Z,14.20
2019-04-03T20:46:41.374Z,14.13
2019-04-03T20:51:48.727Z,13.47
2019-04-03T20:56:57.975Z,13.70
2019-04-03T21:02:02.924Z,12.50
2019-04-03T21:07:09.081Z,14.40
2019-04-03T21:12:15.157Z,13.23
2019-04-03T21:17:23.898Z,13.60
2019-04-03T21:22:30.240Z,13.90
2019-04-03T21:27:39.799Z,13.20
2019-04-03T21:32:44.361Z,13.73
2019-04-03T21:37:50.433Z,13.83
2019-04-03T21:42:57.900Z,14.80
2019-04-03T21:48:04.628Z,13.77
2019-04-03T21:53:10.733Z,15.23
2019-04-03T21:58:16.654Z,14.93
2019-04-03T22:03:22.819Z,15.73
2019-04-03T22:08:29.175Z,15.10
2019-04-03T22:13:38.278Z,15.07
2019-04-03T22:18:43.623Z,15.33
2019-04-03T22:23:51.462Z,14.43
2019-04-03T22:28:57.615Z,14.93
2019-04-03T22:34:03.755Z,14.80
2019-04-03T22:39:10.268Z,15.67
2019-04-03T22:44:17.100Z,15.23
2019-04-03T22:49:24.039Z,15.63
2019-04-03T22:54:30.199Z,15.17
2019-04-03T22:59:38.149Z,14.77
2019-04-03T23:04:46.378Z,15.40
2019-04-03T23:09:52.654Z,14.33
2019-04-03T23:14:58.865Z,15.63
2019-04-03T23:20:05.127Z,15.93
2019-04-03T23:25:11.289Z,15.43
2019-04-03T23:30:17.490Z,15.13
2019-04-03T23:35:23.623Z,15.03
2019-04-03T23:40:29.759Z,16.23
2019-04-03T23:45:35.914Z,14.97
2019-04-03T23:50:42.295Z,14.73
2019-04-03T23:55:48.430Z,14.67
